createdAt,value
2022-10-09T00:02:25.862Z,6.57
2022-10-09T00:04:55.687Z,6.03
2022-10-09T00:07:25.602Z,5.38
2022-10-09T00:09:55.481Z,5.00
2022-10-09T00:12:25.156Z,5.45
2022-10-09T00:14:54.845Z,5.10
2022-10-09T00:17:27.761Z,4.68
2022-10-09T00:19:57.691Z,4.85
2022-10-09T00:22:27.513Z,2.85
2022-10-09T00:24:57.223Z,3.28
2022-10-09T00:27:27.409Z,2.30
2022-10-09T00:29:57.337Z,2.35
2022-10-09T00:32:27.825Z,1.45
2022-10-09T00:34:57.636Z,1.38
2022-10-09T00:37:27.556Z,1.45
2022-10-09T00:39:57.412Z,1.48
2022-10-09T00:42:27.855Z,1.80
2022-10-09T00:45:01.856Z,2.08
2022-10-09T00:47:45.485Z,1.27
2022-10-09T00:50:24.240Z,1.65
2022-10-09T00:52:55.821Z,1.70
2022-10-09T00:55:25.627Z,1.58
2022-10-09T00:57:56.231Z,2.58
2022-10-09T01:00:26.157Z,2.65
2022-10-09T01:02:56.593Z,2.67
2022-10-09T01:05:33.414Z,3.20
2022-10-09T01:08:11.302Z,2.78
2022-10-09T01:10:40.980Z,3.80
2022-10-09T01:13:29.767Z,1.98
2022-10-09T01:16:07.314Z,2.65
2022-10-09T01:18:49.373Z,1.70
2022-10-09T01:21:29.198Z,1.20
2022-10-09T01:23:59.115Z,1.65
2022-10-09T01:26:29.190Z,1.15
2022-10-09T01:28:59.925Z,2.33
2022-10-09T01:31:31.562Z,1.40
2022-10-09T01:34:01.620Z,1.58
2022-10-09T01:36:32.623Z,2.22
2022-10-09T01:39:03.011Z,1.73
2022-10-09T01:41:32.897Z,1.80
2022-10-09T01:44:02.835Z,1.85
2022-10-09T01:46:33.605Z,1.83
2022-10-09T01:49:06.585Z,2.28
2022-10-09T01:51:38.448Z,1.83
2022-10-09T01:54:08.626Z,2.30
2022-10-09T01:56:38.240Z,2.55
2022-10-09T01:59:15.668Z,2.58
2022-10-09T02:01:46.181Z,2.05
2022-10-09T02:04:16.691Z,2.00
2022-10-09T02:06:46.594Z,2.25
2022-10-09T02:09:17.267Z,2.30
2022-10-09T02:11:49.417Z,3.55
2022-10-09T02:14:19.886Z,2.35
2022-10-09T02:16:50.079Z,2.10
2022-10-09T02:19:20.460Z,3.08
2022-10-09T02:21:54.404Z,2.13
2022-10-09T02:24:25.033Z,2.53
2022-10-09T02:26:59.183Z,3.35
2022-10-09T02:29:29.046Z,2.47
2022-10-09T02:32:00.636Z,2.20
2022-10-09T02:34:30.429Z,2.03
2022-10-09T02:37:00.623Z,2.03
2022-10-09T02:39:30.299Z,2.17
2022-10-09T02:41:59.973Z,2.28
2022-10-09T02:44:29.763Z,2.30
2022-10-09T02:46:59.590Z,2.05
2022-10-09T02:49:30.251Z,1.92
2022-10-09T02:51:59.875Z,2.08
2022-10-09T02:54:33.294Z,2.60
2022-10-09T02:57:02.979Z,3.10
2022-10-09T02:59:33.896Z,2.45
2022-10-09T03:02:04.134Z,2.17
2022-10-09T03:04:34.302Z,2.00
2022-10-09T03:07:04.774Z,2.60
2022-10-09T03:09:34.562Z,2.80
2022-10-09T03:12:04.373Z,3.17
2022-10-09T03:14:34.331Z,2.13
2022-10-09T03:17:03.923Z,1.83
2022-10-09T03:19:33.696Z,1.85
2022-10-09T03:22:03.753Z,2.92
2022-10-09T03:24:33.413Z,3.13
2022-10-09T03:27:03.249Z,2.92
2022-10-09T03:29:33.149Z,2.58
2022-10-09T03:32:03.023Z,1.85
2022-10-09T03:34:33.042Z,2.65
2022-10-09T03:37:03.152Z,1.88
2022-10-09T03:39:33.865Z,2.65
2022-10-09T03:42:03.780Z,2.78
2022-10-09T03:44:33.805Z,2.78
2022-10-09T03:47:06.483Z,2.80
2022-10-09T03:49:36.296Z,2.10
2022-10-09T03:52:06.414Z,2.60
2022-10-09T03:54:36.306Z,2.70
2022-10-09T03:57:06.090Z,2.47
2022-10-09T03:59:35.949Z,2.97
2022-10-09T04:02:06.434Z,2.83
2022-10-09T04:04:39.969Z,2.55
2022-10-09T04:07:12.343Z,3.25
2022-10-09T04:09:42.005Z,2.58
2022-10-09T04:12:12.605Z,2.05
2022-10-09T04:14:42.563Z,2.35
2022-10-09T04:17:12.459Z,2.50
2022-10-09T04:19:42.617Z,2.22
2022-10-09T04:22:12.375Z,2.53
2022-10-09T04:24:42.009Z,2.60
2022-10-09T04:27:12.082Z,2.13
2022-10-09T04:29:42.155Z,2.70
2022-10-09T04:32:12.779Z,2.30
2022-10-09T04:34:42.613Z,2.63
2022-10-09T04:37:12.604Z,2.38
2022-10-09T04:39:42.519Z,2.50
2022-10-09T04:42:12.571Z,2.45
2022-10-09T04:44:42.357Z,2.17
2022-10-09T04:47:12.230Z,1.90
2022-10-09T04:49:42.335Z,2.90
2022-10-09T04:52:12.101Z,2.75
2022-10-09T04:54:41.962Z,3.35
2022-10-09T04:57:11.731Z,2.72
2022-10-09T04:59:41.573Z,2.67
2022-10-09T05:02:11.345Z,2.08
2022-10-09T05:04:41.113Z,2.30
2022-10-09T05:07:10.913Z,2.13
2022-10-09T05:09:40.794Z,2.90
2022-10-09T05:12:10.829Z,3.63
2022-10-09T05:14:40.826Z,2.63
2022-10-09T05:17:14.215Z,2.22
2022-10-09T05:19:44.867Z,2.88
2022-10-09T05:22:14.744Z,2.50
2022-10-09T05:24:44.578Z,2.22
2022-10-09T05:27:14.533Z,2.30
2022-10-09T05:29:44.277Z,2.88
2022-10-09T05:32:16.215Z,2.78
2022-10-09T05:34:45.987Z,2.20
2022-10-09T05:37:16.015Z,2.45
2022-10-09T05:39:46.896Z,2.22
2022-10-09T05:42:16.705Z,2.40
2022-10-09T05:44:46.537Z,2.67
2022-10-09T05:47:19.659Z,3.75
2022-10-09T05:49:49.335Z,2.65
2022-10-09T05:52:19.294Z,2.45
2022-10-09T05:54:49.388Z,3.30
2022-10-09T05:57:19.286Z,2.35
2022-10-09T05:59:49.434Z,2.72
2022-10-09T06:02:19.618Z,3.15
2022-10-09T06:04:49.453Z,1.70
2022-10-09T06:07:19.320Z,2.60
2022-10-09T06:09:49.508Z,2.42
2022-10-09T06:12:19.605Z,2.33
2022-10-09T06:14:49.389Z,2.88
2022-10-09T06:17:19.433Z,2.30
2022-10-09T06:19:51.878Z,2.28
2022-10-09T06:22:22.131Z,2.90
2022-10-09T06:24:51.934Z,2.55
2022-10-09T06:27:21.639Z,3.00
2022-10-09T06:29:51.787Z,3.08
2022-10-09T06:32:22.744Z,2.67
2022-10-09T06:34:53.594Z,2.45
2022-10-09T06:37:23.826Z,3.45
2022-10-09T06:39:53.872Z,2.70
2022-10-09T06:42:23.934Z,3.03
2022-10-09T06:44:57.685Z,3.10
2022-10-09T06:47:28.533Z,3.58
2022-10-09T06:49:58.958Z,2.50
2022-10-09T06:52:28.766Z,2.70
2022-10-09T06:54:58.484Z,2.47
2022-10-09T06:57:28.621Z,2.83
2022-10-09T06:59:58.875Z,2.90
2022-10-09T07:02:29.215Z,4.95
2022-10-09T07:04:59.406Z,3.20
2022-10-09T07:07:29.657Z,6.85
2022-10-09T07:09:59.907Z,3.55
2022-10-09T07:12:30.213Z,4.60
2022-10-09T07:15:00.793Z,4.70
2022-10-09T07:17:31.502Z,3.42
2022-10-09T07:20:01.860Z,3.47
2022-10-09T07:22:32.614Z,2.85
2022-10-09T07:25:03.111Z,4.10
2022-10-09T07:27:33.811Z,4.25
2022-10-09T07:30:04.575Z,5.95
2022-10-09T07:32:35.836Z,3.42
2022-10-09T07:35:06.753Z,4.30
2022-10-09T07:37:37.467Z,4.85
2022-10-09T07:40:07.737Z,4.30
2022-10-09T07:42:40.157Z,3.20
2022-10-09T07:45:10.538Z,3.85
2022-10-09T07:47:40.574Z,4.25
2022-10-09T07:50:10.711Z,4.00
2022-10-09T07:52:40.762Z,3.42
2022-10-09T07:55:10.881Z,3.92
2022-10-09T07:57:41.183Z,5.03
2022-10-09T08:00:11.471Z,5.00
2022-10-09T08:02:41.674Z,4.43
2022-10-09T08:05:11.867Z,4.57
2022-10-09T08:07:41.836Z,4.50
2022-10-09T08:10:11.949Z,5.55
2022-10-09T08:12:41.898Z,7.00
2022-10-09T08:15:12.006Z,5.38
2022-10-09T08:17:42.049Z,21.60
2022-10-09T08:20:11.962Z,20.65
2022-10-09T08:22:41.794Z,9.52
2022-10-09T08:25:11.920Z,9.70
2022-10-09T08:27:41.607Z,6.50
2022-10-09T08:30:11.736Z,7.05
2022-10-09T08:32:42.583Z,5.65
2022-10-09T08:35:12.877Z,6.03
2022-10-09T08:37:42.839Z,5.60
2022-10-09T08:40:13.892Z,8.32
2022-10-09T08:42:47.579Z,16.73
2022-10-09T08:45:18.327Z,18.42
2022-10-09T08:47:48.697Z,11.80
2022-10-09T08:50:24.429Z,8.25
2022-10-09T08:52:56.992Z,10.88
2022-10-09T08:55:27.911Z,11.07
2022-10-09T08:57:58.462Z,12.32
2022-10-09T09:00:30.677Z,9.65
2022-10-09T09:03:13.159Z,7.53
2022-10-09T09:05:45.578Z,8.85
2022-10-09T09:08:19.901Z,9.48
2022-10-09T09:11:12.240Z,8.93
2022-10-09T09:14:00.540Z,8.07
2022-10-09T09:16:42.484Z,9.25
2022-10-09T09:19:24.670Z,8.10
2022-10-09T09:21:54.591Z,10.77
2022-10-09T09:24:34.703Z,7.50
2022-10-09T09:27:05.359Z,10.88
2022-10-09T09:29:35.316Z,10.20
2022-10-09T09:32:05.374Z,7.47
2022-10-09T09:34:38.433Z,6.93
2022-10-09T09:37:08.314Z,6.63
2022-10-09T09:40:34.414Z,6.20
2022-10-09T09:42:28.196Z,6.47
2022-10-09T09:45:07.667Z,6.07
2022-10-09T09:47:37.493Z,9.60
2022-10-09T09:50:15.209Z,7.53
2022-10-09T09:52:53.509Z,7.05
2022-10-09T09:55:30.811Z,5.75
2022-10-09T09:58:04.679Z,7.13
2022-10-09T10:00:34.407Z,7.05
2022-10-09T10:03:23.046Z,6.97
2022-10-09T10:05:53.362Z,7.60
2022-10-09T10:08:30.309Z,6.85
2022-10-09T10:11:01.548Z,6.15
2022-10-09T10:13:41.139Z,6.25
2022-10-09T10:16:13.734Z,6.88
2022-10-09T10:18:44.244Z,7.13
2022-10-09T10:21:18.062Z,6.97
2022-10-09T10:24:08.041Z,8.02
2022-10-09T10:26:44.658Z,7.78
2022-10-09T10:29:28.034Z,8.80
2022-10-09T10:32:04.505Z,8.65
2022-10-09T10:34:46.616Z,9.57
2022-10-09T10:37:16.525Z,8.18
2022-10-09T10:39:49.702Z,11.30
2022-10-09T10:42:25.893Z,10.65
2022-10-09T10:45:15.894Z,10.25
2022-10-09T10:47:48.607Z,11.45
2022-10-09T10:50:18.925Z,11.43
2022-10-09T10:53:15.885Z,10.73
2022-10-09T10:55:50.025Z,12.05
2022-10-09T10:58:25.991Z,11.45
2022-10-09T11:01:04.801Z,19.73
2022-10-09T11:03:53.086Z,11.15
2022-10-09T11:06:26.821Z,9.97
2022-10-09T11:08:56.543Z,9.20
2022-10-09T11:11:44.812Z,8.85
2022-10-09T11:14:19.251Z,9.48
2022-10-09T11:16:52.963Z,9.52
2022-10-09T11:19:25.870Z,9.10
2022-10-09T11:22:44.942Z,9.15
2022-10-09T11:25:14.762Z,8.65
2022-10-09T11:27:55.218Z,9.05
2022-10-09T11:30:27.972Z,9.25
2022-10-09T11:33:03.174Z,9.82
2022-10-09T11:35:59.077Z,9.40
2022-10-09T11:38:31.211Z,9.38
2022-10-09T11:41:05.113Z,8.98
2022-10-09T11:43:46.130Z,9.38
2022-10-09T11:46:21.950Z,9.93
2022-10-09T11:48:55.813Z,12.30
2022-10-09T11:51:41.089Z,13.23
2022-10-09T11:54:16.221Z,12.77
2022-10-09T11:56:59.353Z,15.15
2022-10-09T11:59:33.125Z,14.63
2022-10-09T12:02:04.020Z,14.45
2022-10-09T12:07:30.890Z,14.20
2022-10-09T12:10:02.712Z,14.85
2022-10-09T12:12:32.674Z,14.90
2022-10-09T12:15:12.040Z,13.50
2022-10-09T12:17:50.047Z,11.82
2022-10-09T12:20:23.931Z,12.65
2022-10-09T12:23:27.114Z,11.80
2022-10-09T12:25:48.840Z,10.90
2022-10-09T12:28:29.519Z,11.55
2022-10-09T12:31:00.553Z,10.90
2022-10-09T12:33:41.436Z,10.50
2022-10-09T12:36:18.370Z,9.48
2022-10-09T12:38:48.429Z,8.55
2022-10-09T12:41:44.619Z,9.40
2022-10-09T12:44:43.832Z,9.30
2022-10-09T12:47:19.152Z,8.73
2022-10-09T12:50:01.866Z,7.65
2022-10-09T12:52:31.762Z,7.75
2022-10-09T12:55:02.047Z,7.97
2022-10-09T12:57:35.043Z,6.93
2022-10-09T13:00:04.871Z,6.97
2022-10-09T13:02:34.894Z,7.20
2022-10-09T13:05:04.699Z,6.45
2022-10-09T13:07:34.834Z,7.90
2022-10-09T13:10:06.581Z,6.53
2022-10-09T13:12:36.781Z,6.82
2022-10-09T13:15:10.865Z,7.28
2022-10-09T13:17:41.905Z,6.75
2022-10-09T13:20:17.063Z,6.65
2022-10-09T13:23:16.065Z,6.05
2022-10-09T13:28:16.491Z,6.30
2022-10-09T13:30:46.614Z,7.50
2022-10-09T13:33:17.256Z,7.57
2022-10-09T13:35:47.677Z,6.53
2022-10-09T13:38:19.125Z,6.75
2022-10-09T13:40:49.559Z,6.15
2022-10-09T13:43:21.870Z,5.35
2022-10-09T13:45:54.730Z,5.20
2022-10-09T13:48:24.715Z,5.75
2022-10-09T13:50:55.105Z,5.63
2022-10-09T13:53:25.408Z,6.13
2022-10-09T13:56:00.054Z,5.80
2022-10-09T13:58:31.316Z,6.13
2022-10-09T14:01:01.553Z,5.50
2022-10-09T14:03:31.802Z,5.72
2022-10-09T14:06:02.455Z,6.10
2022-10-09T14:08:32.848Z,6.32
2022-10-09T14:11:03.392Z,5.88
2022-10-09T14:13:35.000Z,5.65
2022-10-09T14:16:08.667Z,5.93
2022-10-09T14:18:38.737Z,5.50
2022-10-09T14:21:15.706Z,5.90
2022-10-09T14:23:46.104Z,6.22
2022-10-09T14:26:16.234Z,5.50
2022-10-09T14:28:46.718Z,5.53
2022-10-09T14:31:19.151Z,5.40
2022-10-09T14:33:50.637Z,5.13
2022-10-09T14:36:21.896Z,5.22
2022-10-09T14:38:51.836Z,5.95
2022-10-09T14:41:21.918Z,6.30
2022-10-09T14:43:56.914Z,5.13
2022-10-09T14:46:27.251Z,6.03
2022-10-09T14:48:57.784Z,5.82
2022-10-09T14:51:28.128Z,5.13
2022-10-09T14:54:01.333Z,4.85
2022-10-09T14:56:31.783Z,6.05
2022-10-09T14:59:04.943Z,5.82
2022-10-09T15:01:34.957Z,5.32
2022-10-09T15:04:05.135Z,5.97
2022-10-09T15:06:35.807Z,6.57
2022-10-09T15:09:07.421Z,5.38
2022-10-09T15:11:37.414Z,5.45
2022-10-09T15:14:07.339Z,6.70
2022-10-09T15:16:37.320Z,4.90
2022-10-09T15:19:07.411Z,5.97
2022-10-09T15:21:37.612Z,5.18
2022-10-09T15:24:07.573Z,4.70
2022-10-09T15:26:38.223Z,5.18
2022-10-09T15:29:08.691Z,5.93
2022-10-09T15:31:42.414Z,5.03
2022-10-09T15:34:13.315Z,4.55
2022-10-09T15:36:45.452Z,4.47
2022-10-09T15:39:18.216Z,8.85
2022-10-09T15:41:48.543Z,7.35
2022-10-09T15:44:22.214Z,7.18
2022-10-09T15:46:52.548Z,7.18
2022-10-09T15:49:22.496Z,6.00
2022-10-09T15:51:52.428Z,5.85
2022-10-09T15:54:22.570Z,4.38
2022-10-09T15:56:52.553Z,6.30
2022-10-09T15:59:22.485Z,5.10
2022-10-09T16:01:52.892Z,6.10
2022-10-09T16:04:22.694Z,4.68
2022-10-09T16:06:52.715Z,6.32
2022-10-09T16:09:22.502Z,5.22
2022-10-09T16:11:52.461Z,6.10
2022-10-09T16:14:22.473Z,5.00
2022-10-09T16:16:53.056Z,6.15
2022-10-09T16:19:22.739Z,6.03
2022-10-09T16:21:52.675Z,5.05
2022-10-09T16:24:22.633Z,5.18
2022-10-09T16:26:52.610Z,4.22
2022-10-09T16:29:22.316Z,4.15
2022-10-09T16:31:52.409Z,4.03
2022-10-09T16:34:22.423Z,4.28
2022-10-09T16:36:52.374Z,4.88
2022-10-09T16:39:24.973Z,4.88
2022-10-09T16:41:54.885Z,4.00
2022-10-09T16:44:24.610Z,5.72
2022-10-09T16:46:55.345Z,6.00
2022-10-09T16:49:25.329Z,4.10
2022-10-09T16:51:55.196Z,4.80
2022-10-09T16:54:25.146Z,5.03
2022-10-09T16:56:55.255Z,4.90
2022-10-09T16:59:25.060Z,4.88
2022-10-09T17:01:55.086Z,4.97
2022-10-09T17:04:24.901Z,4.65
2022-10-09T17:06:55.002Z,4.20
2022-10-09T17:09:24.836Z,4.18
2022-10-09T17:11:54.788Z,4.13
2022-10-09T17:14:24.646Z,4.00
2022-10-09T17:16:54.353Z,4.05
2022-10-09T17:19:24.210Z,4.22
2022-10-09T17:21:55.024Z,3.15
2022-10-09T17:24:25.062Z,4.25
2022-10-09T17:26:55.041Z,2.92
2022-10-09T17:29:25.039Z,3.88
2022-10-09T17:31:55.188Z,4.63
2022-10-09T17:34:24.877Z,3.58
2022-10-09T17:36:55.067Z,3.92
2022-10-09T17:39:25.043Z,3.70
2022-10-09T17:41:54.972Z,5.13
2022-10-09T17:44:24.852Z,3.97
2022-10-09T17:46:54.896Z,4.70
2022-10-09T17:49:24.676Z,4.35
2022-10-09T17:51:56.068Z,4.85
2022-10-09T17:54:25.795Z,4.75
2022-10-09T17:56:55.866Z,4.10
2022-10-09T17:59:25.981Z,4.95
2022-10-09T18:01:56.229Z,4.65
2022-10-09T18:04:25.844Z,3.92
2022-10-09T18:06:55.615Z,4.30
2022-10-09T18:09:25.467Z,4.65
2022-10-09T18:11:55.400Z,5.90
2022-10-09T18:14:25.292Z,4.53
2022-10-09T18:16:55.186Z,3.70
2022-10-09T18:19:24.966Z,4.07
2022-10-09T18:21:54.829Z,4.35
2022-10-09T18:24:24.651Z,4.40
2022-10-09T18:26:54.755Z,4.75
2022-10-09T18:29:24.709Z,3.53
2022-10-09T18:31:57.258Z,4.35
2022-10-09T18:34:27.118Z,4.00
2022-10-09T18:36:57.084Z,4.53
2022-10-09T18:39:26.883Z,4.95
2022-10-09T18:41:59.856Z,4.28
2022-10-09T18:44:29.748Z,4.47
2022-10-09T18:47:00.380Z,4.10
2022-10-09T18:49:30.799Z,4.50
2022-10-09T18:52:00.585Z,4.05
2022-10-09T18:54:30.379Z,4.55
2022-10-09T18:57:00.190Z,4.60
2022-10-09T18:59:30.026Z,4.30
2022-10-09T19:01:59.826Z,4.45
2022-10-09T19:04:29.722Z,3.97
2022-10-09T19:06:59.591Z,4.43
2022-10-09T19:09:29.533Z,3.95
2022-10-09T19:11:59.430Z,4.13
2022-10-09T19:14:29.465Z,5.03
2022-10-09T19:16:59.217Z,4.18
2022-10-09T19:19:30.761Z,3.67
2022-10-09T19:22:00.725Z,5.15
2022-10-09T19:24:34.106Z,5.25
2022-10-09T19:27:04.506Z,3.92
2022-10-09T19:29:34.698Z,3.50
2022-10-09T19:32:05.694Z,4.47
2022-10-09T19:34:35.344Z,3.92
2022-10-09T19:37:06.687Z,3.78
2022-10-09T19:39:36.534Z,4.15
2022-10-09T19:42:06.389Z,3.58
2022-10-09T19:44:36.414Z,3.75
2022-10-09T19:47:06.468Z,3.90
2022-10-09T19:49:36.320Z,4.22
2022-10-09T19:52:06.168Z,3.42
2022-10-09T19:54:38.927Z,3.83
2022-10-09T19:57:08.677Z,3.75
2022-10-09T19:59:38.561Z,4.03
2022-10-09T20:02:09.799Z,4.78
2022-10-09T20:04:39.527Z,3.95
2022-10-09T20:07:12.470Z,3.85
2022-10-09T20:09:42.735Z,3.88
2022-10-09T20:12:12.867Z,4.30
2022-10-09T20:14:42.714Z,4.25
2022-10-09T20:17:12.428Z,3.65
2022-10-09T20:19:45.500Z,3.45
2022-10-09T20:22:15.776Z,4.13
2022-10-09T20:24:45.500Z,4.32
2022-10-09T20:27:15.150Z,4.68
2022-10-09T20:29:45.030Z,3.97
2022-10-09T20:32:14.824Z,4.03
2022-10-09T20:34:45.788Z,3.95
2022-10-09T20:37:15.644Z,4.22
2022-10-09T20:39:45.355Z,4.25
2022-10-09T20:42:15.120Z,3.70
2022-10-09T20:44:45.220Z,4.00
2022-10-09T20:47:15.194Z,4.47
2022-10-09T20:49:45.148Z,3.97
2022-10-09T20:52:14.845Z,3.90
2022-10-09T20:54:44.542Z,4.72
2022-10-09T20:57:14.279Z,4.47
2022-10-09T20:59:44.138Z,4.10
2022-10-09T21:02:17.044Z,5.13
2022-10-09T21:04:48.102Z,4.43
2022-10-09T21:07:18.021Z,5.20
2022-10-09T21:09:47.990Z,4.05
2022-10-09T21:12:17.919Z,4.28
2022-10-09T21:14:47.898Z,4.38
2022-10-09T21:17:17.551Z,4.15
2022-10-09T21:19:47.230Z,4.80
2022-10-09T21:22:17.006Z,4.20
2022-10-09T21:24:46.810Z,4.00
2022-10-09T21:27:16.888Z,4.68
2022-10-09T21:29:46.608Z,3.88
2022-10-09T21:32:16.981Z,4.32
2022-10-09T21:34:47.423Z,4.47
2022-10-09T21:37:21.408Z,3.85
2022-10-09T21:39:51.988Z,4.25
2022-10-09T21:42:21.801Z,4.22
2022-10-09T21:44:51.669Z,5.38
2022-10-09T21:47:21.443Z,4.63
2022-10-09T21:49:51.138Z,5.13
2022-10-09T21:52:20.854Z,5.78
2022-10-09T21:54:50.865Z,6.00
2022-10-09T21:57:20.924Z,4.20
2022-10-09T21:59:50.849Z,5.35
2022-10-09T22:02:20.918Z,5.13
2022-10-09T22:04:51.052Z,4.53
2022-10-09T22:07:20.987Z,4.72
2022-10-09T22:09:51.083Z,4.50
2022-10-09T22:12:21.020Z,3.95
2022-10-09T22:14:50.911Z,3.97
2022-10-09T22:17:20.866Z,5.15
2022-10-09T22:19:50.671Z,5.28
2022-10-09T22:22:20.675Z,4.15
2022-10-09T22:24:50.548Z,4.32
2022-10-09T22:27:20.377Z,3.45
2022-10-09T22:29:50.219Z,3.85
2022-10-09T22:32:20.266Z,4.25
2022-10-09T22:34:53.738Z,4.50
2022-10-09T22:37:23.472Z,4.85
2022-10-09T22:39:53.485Z,4.40
2022-10-09T22:42:23.245Z,5.35
2022-10-09T22:44:52.964Z,4.53
2022-10-09T22:47:22.638Z,5.05
2022-10-09T22:49:52.922Z,4.63
2022-10-09T22:52:22.615Z,4.88
2022-10-09T22:54:52.307Z,6.13
2022-10-09T22:57:22.174Z,6.43
2022-10-09T22:59:51.961Z,6.25
2022-10-09T23:02:21.871Z,7.20
2022-10-09T23:04:51.935Z,5.93
2022-10-09T23:07:21.906Z,6.93
2022-10-09T23:09:51.991Z,7.10
2022-10-09T23:12:21.658Z,7.80
2022-10-09T23:14:51.716Z,6.20
2022-10-09T23:17:21.655Z,6.43
2022-10-09T23:19:53.918Z,6.32
2022-10-09T23:22:23.596Z,6.22
2022-10-09T23:24:53.576Z,6.68
2022-10-09T23:27:23.463Z,5.00
2022-10-09T23:29:53.671Z,5.68
2022-10-09T23:32:23.797Z,5.15
2022-10-09T23:34:53.884Z,5.20
2022-10-09T23:37:23.659Z,4.93
2022-10-09T23:39:53.549Z,5.88
2022-10-09T23:42:23.365Z,5.47
2022-10-09T23:44:53.962Z,4.95
2022-10-09T23:47:26.465Z,5.80
2022-10-09T23:49:56.421Z,5.95
2022-10-09T23:52:26.067Z,6.47
2022-10-09T23:54:56.023Z,5.28
2022-10-09T23:57:25.785Z,4.88
2022-10-09T23:59:55.798Z,4.47
